Time;durP1;ratioP1;P1;durP2;ratioP2;P2;SDS_P1;SDS_P2;PMS_P1;PMS_P2;Temp;Humidity;BMP_temperature;BMP_pressure;BME280_temperature;BME280_humidity;BME280_pressure;Samples;Min_cycle;Max_cycle;Signal;HPM_P1;HPM_P2
2022/06/27 00:01:49;;;;;;;24.50;10.90;;;17.50;99.90;;;;;;5019251;28;20322;-77
2022/06/27 00:04:15;;;;;;;24.10;10.43;;;17.50;99.90;;;;;;4997245;28;20038;-78
2022/06/27 00:06:40;;;;;;;23.77;10.57;;;17.50;99.90;;;;;;5011214;28;20049;-77
2022/06/27 00:09:06;;;;;;;25.33;10.70;;;17.50;99.90;;;;;;4993518;28;20038;-77
2022/06/27 00:11:32;;;;;;;21.00;10.60;;;17.50;99.90;;;;;;5012824;28;20057;-78
2022/06/27 00:13:58;;;;;;;25.93;10.03;;;17.50;99.90;;;;;;5020574;28;20171;-79
2022/06/27 00:16:24;;;;;;;19.45;9.95;;;17.50;99.90;;;;;;5019383;28;20950;-79
2022/06/27 00:18:50;;;;;;;18.05;9.40;;;17.40;99.90;;;;;;4995808;28;20046;-78
2022/06/27 00:21:15;;;;;;;23.27;10.23;;;17.40;99.90;;;;;;5005978;28;20045;-78
2022/06/27 00:23:41;;;;;;;20.40;10.03;;;17.40;99.90;;;;;;4974462;28;20046;-77
2022/06/27 00:26:08;;;;;;;24.23;9.57;;;17.40;99.90;;;;;;5012189;28;20176;-78
2022/06/27 00:28:34;;;;;;;18.58;9.38;;;17.30;99.90;;;;;;5003629;28;20064;-77
2022/06/27 00:30:59;;;;;;;17.97;9.33;;;17.30;99.90;;;;;;5007272;28;20050;-77
2022/06/27 00:33:25;;;;;;;23.83;10.07;;;17.40;99.90;;;;;;5007498;28;20050;-77
2022/06/27 00:35:51;;;;;;;25.93;9.30;;;17.30;99.90;;;;;;5007432;28;20038;-79
2022/06/27 00:38:17;;;;;;;22.67;9.70;;;17.30;99.90;;;;;;5014672;28;20061;-78
2022/06/27 00:40:43;;;;;;;17.20;8.90;;;17.30;99.90;;;;;;5017376;28;20378;-76
2022/06/27 00:43:09;;;;;;;17.03;8.03;;;17.30;99.90;;;;;;5011671;28;20072;-77
2022/06/27 00:45:34;;;;;;;16.92;8.52;;;17.20;99.90;;;;;;5015055;28;20050;-78
2022/06/27 00:48:00;;;;;;;17.43;9.40;;;17.20;99.90;;;;;;5011609;28;20204;-77
2022/06/27 00:50:26;;;;;;;18.40;8.50;;;17.20;99.90;;;;;;5014410;28;20151;-77
2022/06/27 00:52:52;;;;;;;16.83;8.23;;;17.20;99.90;;;;;;5015542;28;20050;-77
2022/06/27 00:55:18;;;;;;;21.85;8.80;;;17.10;99.90;;;;;;5010562;28;20489;-77
2022/06/27 00:57:44;;;;;;;20.47;9.03;;;17.10;99.90;;;;;;5019912;28;20038;-77
2022/06/27 01:00:10;;;;;;;16.42;9.20;;;17.10;99.90;;;;;;5007244;28;20434;-77
2022/06/27 01:02:36;;;;;;;17.70;8.48;;;17.10;99.90;;;;;;5018776;28;20042;-79
2022/06/27 01:05:03;;;;;;;21.97;9.53;;;17.10;99.90;;;;;;5011467;28;20057;-77
2022/06/27 01:07:29;;;;;;;18.60;8.45;;;17.10;99.90;;;;;;5016544;28;20061;-78
2022/06/27 01:09:56;;;;;;;13.73;7.80;;;17.10;99.90;;;;;;5026592;28;20216;-78
2022/06/27 01:12:23;;;;;;;21.50;9.05;;;17.00;99.90;;;;;;5016565;28;20141;-77
2022/06/27 01:14:50;;;;;;;20.20;8.38;;;17.00;99.90;;;;;;5001662;28;20048;-78
2022/06/27 01:17:17;;;;;;;20.30;8.82;;;17.00;99.90;;;;;;5015115;28;20104;-78
2022/06/27 01:19:43;;;;;;;19.73;8.40;;;17.00;99.90;;;;;;5009298;28;20053;-78
2022/06/27 01:22:10;;;;;;;16.07;8.87;;;17.00;99.90;;;;;;5013163;28;20817;-79
2022/06/27 01:24:36;;;;;;;19.65;8.82;;;17.00;99.90;;;;;;5030489;28;20049;-78
2022/06/27 01:27:04;;;;;;;19.47;8.70;;;17.00;99.90;;;;;;4998921;28;20045;-77
2022/06/27 01:29:29;;;;;;;18.25;9.95;;;17.00;99.90;;;;;;5013719;28;20429;-76
2022/06/27 01:31:55;;;;;;;16.50;8.60;;;17.10;99.90;;;;;;5012943;28;20067;-77
2022/06/27 01:34:21;;;;;;;20.90;9.40;;;17.10;99.90;;;;;;5009241;28;20102;-77
2022/06/27 01:36:47;;;;;;;17.70;8.67;;;17.00;99.90;;;;;;5028437;28;20055;-77
2022/06/27 01:39:14;;;;;;;23.65;9.77;;;17.00;99.90;;;;;;4995617;28;20046;-77
2022/06/27 01:41:42;;;;;;;21.23;9.68;;;17.00;99.90;;;;;;5010536;28;20050;-77
2022/06/27 01:44:09;;;;;;;21.92;11.00;;;17.00;99.90;;;;;;5012639;28;20074;-78
2022/06/27 01:46:40;;;;;;;22.23;9.43;;;17.00;99.90;;;;;;5006815;28;20033;-77
2022/06/27 01:49:06;;;;;;;20.77;9.57;;;17.00;99.90;;;;;;5009444;28;20481;-77
2022/06/27 01:51:33;;;;;;;19.83;9.77;;;17.00;99.90;;;;;;5013145;28;20133;-77
2022/06/27 01:53:59;;;;;;;17.75;9.30;;;16.90;99.90;;;;;;5007356;28;20052;-77
2022/06/27 01:56:24;;;;;;;21.63;8.90;;;17.00;99.90;;;;;;5009371;28;20121;-77
2022/06/27 01:58:52;;;;;;;21.67;8.90;;;17.00;99.90;;;;;;5012735;28;20173;-78
2022/06/27 02:01:18;;;;;;;17.65;9.23;;;17.00;99.90;;;;;;5000024;28;20346;-78
2022/06/27 02:03:44;;;;;;;23.37;8.90;;;17.10;99.90;;;;;;5018021;28;20042;-78
2022/06/27 02:06:11;;;;;;;22.83;9.03;;;17.10;99.90;;;;;;5015628;28;20064;-77
2022/06/27 02:08:41;;;;;;;20.02;9.27;;;17.10;99.90;;;;;;5011502;28;20038;-78
2022/06/27 02:11:08;;;;;;;19.45;8.85;;;17.10;99.90;;;;;;5010377;28;20061;-79
2022/06/27 02:13:34;;;;;;;18.08;8.65;;;17.10;99.90;;;;;;5008906;28;20069;-78
2022/06/27 02:16:09;;;;;;;18.60;9.43;;;17.20;99.90;;;;;;4999790;28;20049;-79
2022/06/27 02:18:36;;;;;;;20.98;9.18;;;17.20;99.90;;;;;;5001294;28;20065;-77
2022/06/27 02:21:02;;;;;;;20.85;9.20;;;17.20;99.90;;;;;;5019026;28;20046;-77
2022/06/27 02:23:28;;;;;;;19.10;8.80;;;17.20;99.90;;;;;;5011352;28;20077;-77
2022/06/27 02:25:55;;;;;;;18.03;9.23;;;17.20;99.90;;;;;;5008156;28;20103;-77
2022/06/27 02:28:22;;;;;;;19.90;8.85;;;17.20;99.90;;;;;;5008088;28;20384;-78
2022/06/27 02:30:48;;;;;;;18.38;8.75;;;17.20;99.90;;;;;;5009714;28;20061;-77
2022/06/27 02:33:14;;;;;;;19.73;9.05;;;17.20;99.90;;;;;;5008901;28;20041;-78
2022/06/27 02:35:40;;;;;;;18.43;9.20;;;17.20;99.90;;;;;;5019908;28;20555;-80
2022/06/27 02:38:11;;;;;;;23.02;10.07;;;17.20;99.90;;;;;;5013104;28;20498;-80
2022/06/27 02:40:38;;;;;;;21.90;9.50;;;17.20;99.90;;;;;;4991229;28;20065;-79
2022/06/27 02:43:06;;;;;;;19.77;10.05;;;17.20;99.90;;;;;;5005974;28;20120;-79
2022/06/27 02:45:33;;;;;;;20.17;9.75;;;17.20;99.90;;;;;;5006418;28;20121;-79
2022/06/27 02:47:59;;;;;;;;;;;17.20;99.90;;;;;;5006732;28;20497;-79
2022/06/27 02:50:27;;;;;;;18.20;9.20;;;17.10;99.90;;;;;;5009828;28;19997;-78
2022/06/27 02:52:55;;;;;;;21.85;9.15;;;17.10;99.90;;;;;;5006702;28;20112;-79
2022/06/27 02:55:27;;;;;;;19.90;8.95;;;17.10;99.90;;;;;;5022820;28;20573;-77
2022/06/27 02:58:04;;;;;;;25.25;9.20;;;17.10;99.90;;;;;;5005632;28;20474;-79
2022/06/27 03:00:32;;;;;;;20.58;9.10;;;17.10;99.90;;;;;;5008500;28;20205;-79
2022/06/27 03:03:00;;;;;;;22.52;8.80;;;17.00;99.90;;;;;;5007101;28;20100;-76
2022/06/27 03:05:26;;;;;;;20.55;8.65;;;17.00;99.90;;;;;;5007221;28;20077;-77
2022/06/27 03:07:51;;;;;;;21.25;9.68;;;17.00;99.90;;;;;;5005691;28;20068;-76
2022/06/27 03:10:17;;;;;;;20.80;9.27;;;17.00;99.90;;;;;;5009813;28;20041;-76
2022/06/27 03:12:43;;;;;;;23.20;9.57;;;16.90;99.90;;;;;;4988214;28;20093;-77
2022/06/27 03:15:09;;;;;;;18.87;10.20;;;16.90;99.90;;;;;;5007002;28;20229;-75
2022/06/27 03:17:35;;;;;;;20.37;10.50;;;16.90;99.90;;;;;;5006157;28;20042;-79
2022/06/27 03:20:01;;;;;;;22.23;11.75;;;16.80;99.90;;;;;;5005431;28;20844;-80
2022/06/27 03:22:27;;;;;;;29.47;12.07;;;16.80;99.90;;;;;;5006670;28;21178;-81
2022/06/27 03:24:52;;;;;;;25.60;12.77;;;16.80;99.90;;;;;;5006998;28;20045;-77
2022/06/27 03:27:18;;;;;;;26.17;12.27;;;16.80;99.90;;;;;;5005257;28;20068;-77
2022/06/27 03:29:44;;;;;;;30.15;13.95;;;16.70;99.90;;;;;;5008012;28;20045;-76
2022/06/27 03:32:10;;;;;;;27.73;13.17;;;16.70;99.90;;;;;;5012109;28;20049;-77
2022/06/27 03:34:35;;;;;;;27.60;13.95;;;16.70;99.90;;;;;;5013257;28;20481;-78
2022/06/27 03:39:37;;;;;;;30.40;15.18;;;16.70;99.90;;;;;;6071214;22;20567;-79
2022/06/27 03:42:03;;;;;;;30.13;15.90;;;16.60;99.90;;;;;;4981228;28;20050;-77
2022/06/27 03:44:29;;;;;;;35.03;17.03;;;16.60;99.90;;;;;;4979507;28;20062;-78
2022/06/27 03:46:55;;;;;;;31.50;16.73;;;16.60;99.90;;;;;;4980130;28;20477;-76
2022/06/27 03:52:05;;;;;;;34.90;17.67;;;16.60;99.90;;;;;;4996176;28;20342;-74
2022/06/27 03:54:30;;;;;;;35.25;17.67;;;16.50;99.90;;;;;;5013168;28;20084;-77
2022/06/27 03:56:57;;;;;;;37.13;18.00;;;16.50;99.90;;;;;;4963417;28;20112;-78
2022/06/27 03:59:23;;;;;;;37.20;18.52;;;16.40;99.90;;;;;;4995449;28;20084;-75
2022/06/27 04:01:49;;;;;;;36.38;17.40;;;16.40;99.90;;;;;;4995969;28;20162;-77
2022/06/27 04:04:15;;;;;;;36.33;17.42;;;16.50;99.90;;;;;;4979524;28;20088;-76
2022/06/27 04:06:41;;;;;;;30.33;15.97;;;16.50;99.90;;;;;;4980289;28;20141;-77
2022/06/27 04:09:07;;;;;;;28.77;13.83;;;16.50;99.90;;;;;;5011996;28;20052;-76
2022/06/27 04:11:32;;;;;;;27.70;13.13;;;16.50;99.90;;;;;;4995653;28;20493;-75
2022/06/27 04:13:58;;;;;;;19.58;10.40;;;16.40;99.90;;;;;;4995311;28;20049;-75
2022/06/27 04:16:24;;;;;;;20.63;9.90;;;16.40;99.90;;;;;;5012877;28;20050;-75
2022/06/27 04:18:50;;;;;;;19.30;9.30;;;16.40;99.90;;;;;;4979190;28;20160;-76
2022/06/27 04:21:16;;;;;;;19.20;9.60;;;16.30;99.90;;;;;;4994879;28;20184;-76
2022/06/27 04:23:42;;;;;;;20.73;8.85;;;16.30;99.90;;;;;;4995346;28;20041;-76
2022/06/27 04:26:07;;;;;;;16.23;8.60;;;16.30;99.90;;;;;;4979083;28;20050;-76
2022/06/27 04:28:34;;;;;;;15.98;8.00;;;16.30;99.90;;;;;;4979022;28;20164;-75
2022/06/27 04:31:00;;;;;;;;;;;16.30;99.90;;;;;;4979750;28;20041;-80
2022/06/27 04:33:26;;;;;;;16.33;7.87;;;16.30;99.90;;;;;;4995714;28;19928;-76
2022/06/27 04:35:52;;;;;;;17.40;7.82;;;16.30;99.90;;;;;;4979427;28;20053;-75
2022/06/27 04:38:19;;;;;;;16.92;8.35;;;16.30;99.90;;;;;;4979964;28;20413;-75
2022/06/27 04:40:45;;;;;;;16.38;8.25;;;16.30;99.90;;;;;;5012320;28;20129;-76
2022/06/27 04:43:11;;;;;;;16.77;7.53;;;16.30;99.90;;;;;;4978708;28;20132;-75
2022/06/27 04:45:37;;;;;;;16.40;8.00;;;16.30;99.90;;;;;;4980141;28;20082;-75
2022/06/27 04:48:07;;;;;;;16.50;8.33;;;16.30;99.90;;;;;;4995293;28;20478;-75
2022/06/27 04:50:34;;;;;;;15.38;7.57;;;16.30;99.90;;;;;;4978919;28;20049;-79
2022/06/27 04:53:00;;;;;;;18.42;7.47;;;16.30;99.90;;;;;;5012729;28;20177;-76
2022/06/27 04:55:26;;;;;;;13.55;6.85;;;16.30;99.90;;;;;;4995031;28;20054;-74
2022/06/27 04:57:52;;;;;;;14.30;7.13;;;16.30;99.90;;;;;;4994892;28;20062;-75
2022/06/27 05:00:18;;;;;;;15.90;6.77;;;16.30;99.90;;;;;;5012912;28;20044;-74
2022/06/27 05:02:45;;;;;;;14.27;6.53;;;16.30;99.90;;;;;;5012432;28;20073;-75
2022/06/27 05:05:11;;;;;;;16.17;6.80;;;16.20;99.90;;;;;;4995165;28;20137;-75
2022/06/27 05:07:37;;;;;;;18.00;7.50;;;16.20;99.90;;;;;;4995129;28;20136;-76
2022/06/27 05:10:03;;;;;;;18.17;7.40;;;16.20;99.90;;;;;;4978771;28;20121;-75
2022/06/27 05:12:29;;;;;;;;;;;16.20;99.90;;;;;;4994967;28;20077;-76
2022/06/27 05:14:55;;;;;;;14.32;6.90;;;16.20;99.90;;;;;;5012222;28;19964;-75
2022/06/27 05:17:24;;;;;;;13.33;7.00;;;16.00;99.90;;;;;;5012183;28;20050;-74
2022/06/27 05:19:50;;;;;;;12.18;6.38;;;16.10;99.90;;;;;;4978742;28;20508;-75
2022/06/27 05:22:16;;;;;;;15.17;6.47;;;16.00;99.90;;;;;;5012075;28;20046;-76
2022/06/27 05:24:42;;;;;;;15.95;6.68;;;16.10;99.90;;;;;;4979164;28;20401;-77
2022/06/27 05:27:09;;;;;;;15.97;6.43;;;16.20;99.90;;;;;;5012281;28;20038;-78
2022/06/27 05:29:38;;;;;;;14.57;6.05;;;16.30;99.90;;;;;;4995071;28;20298;-75
2022/06/27 05:32:04;;;;;;;10.93;6.07;;;16.30;99.90;;;;;;4995082;28;20079;-75
2022/06/27 05:34:30;;;;;;;14.77;6.27;;;16.50;99.90;;;;;;5012292;28;20128;-77
2022/06/27 05:36:56;;;;;;;11.10;5.70;;;16.60;99.90;;;;;;4994898;28;20772;-74
2022/06/27 05:39:22;;;;;;;13.68;6.03;;;16.70;99.90;;;;;;5012368;28;20050;-75
2022/06/27 05:41:48;;;;;;;12.93;6.13;;;16.80;99.90;;;;;;4978030;28;20508;-75
2022/06/27 05:44:14;;;;;;;12.70;6.30;;;16.90;99.90;;;;;;4996059;28;20060;-75
2022/06/27 05:46:41;;;;;;;12.73;6.80;;;16.70;99.90;;;;;;4998336;28;20085;-74
2022/06/27 05:49:11;;;;;;;13.55;6.07;;;16.70;99.90;;;;;;4997902;28;20343;-76
2022/06/27 05:51:37;;;;;;;14.30;7.00;;;16.80;99.90;;;;;;5015287;28;20498;-76
2022/06/27 05:54:05;;;;;;;15.00;7.05;;;16.90;99.90;;;;;;4981858;28;20053;-76
2022/06/27 05:56:43;;;;;;;13.60;7.05;;;17.00;99.90;;;;;;4998272;28;20053;-76
2022/06/27 05:59:09;;;;;;;13.20;6.78;;;17.10;99.90;;;;;;5014154;28;20079;-77
2022/06/27 06:01:37;;;;;;;13.07;6.75;;;16.90;99.90;;;;;;4981916;28;20125;-74
2022/06/27 06:04:03;;;;;;;13.23;6.63;;;16.70;99.90;;;;;;4997939;28;20135;-78
2022/06/27 06:06:29;;;;;;;13.02;7.03;;;16.90;99.90;;;;;;5015260;28;20062;-75
2022/06/27 06:08:55;;;;;;;14.63;7.43;;;16.90;99.90;;;;;;5015734;28;20038;-75
2022/06/27 06:11:21;;;;;;;11.80;6.60;;;16.90;99.90;;;;;;5015822;28;20069;-75
2022/06/27 06:13:47;;;;;;;13.90;6.90;;;17.00;99.90;;;;;;5015152;28;20056;-76
2022/06/27 06:16:19;;;;;;;12.50;6.00;;;17.00;99.90;;;;;;4998427;28;20046;-76
2022/06/27 06:18:50;;;;;;;14.25;6.72;;;16.90;99.90;;;;;;4983826;28;20049;-76
2022/06/27 06:21:17;;;;;;;13.40;6.13;;;16.90;99.90;;;;;;4998171;28;20045;-76
2022/06/27 06:23:42;;;;;;;14.20;6.70;;;17.00;99.90;;;;;;5015506;28;20050;-76
2022/06/27 06:26:08;;;;;;;13.63;7.27;;;17.10;99.90;;;;;;5014968;28;20552;-78
2022/06/27 06:28:35;;;;;;;14.65;6.40;;;17.00;99.90;;;;;;4997487;28;20049;-75
2022/06/27 06:31:01;;;;;;;14.57;6.57;;;17.10;99.90;;;;;;4998552;28;20221;-77
2022/06/27 06:33:29;;;;;;;12.27;6.35;;;17.20;99.90;;;;;;4997482;28;20061;-76
2022/06/27 06:35:55;;;;;;;15.18;7.15;;;17.20;99.90;;;;;;4998393;28;20088;-76
2022/06/27 06:38:22;;;;;;;15.93;7.32;;;17.30;99.90;;;;;;4997923;28;20062;-77
2022/06/27 06:40:47;;;;;;;13.50;6.90;;;17.30;99.90;;;;;;4997105;28;20054;-74
2022/06/27 06:43:13;;;;;;;13.02;6.03;;;17.30;99.90;;;;;;4981175;28;20293;-75
2022/06/27 06:45:40;;;;;;;13.00;6.55;;;17.20;99.90;;;;;;4981975;28;20436;-74
2022/06/27 06:48:09;;;;;;;12.75;6.85;;;17.20;99.90;;;;;;5014804;28;20169;-75
2022/06/27 06:50:35;;;;;;;13.63;6.53;;;17.10;99.90;;;;;;4981647;28;20417;-73
2022/06/27 06:53:01;;;;;;;14.80;6.83;;;17.00;99.90;;;;;;4981230;28;20054;-76
2022/06/27 06:55:27;;;;;;;11.43;6.25;;;17.20;99.90;;;;;;4997345;28;20057;-75
2022/06/27 06:57:56;;;;;;;15.70;6.95;;;17.30;99.90;;;;;;4981102;28;20180;-73
2022/06/27 07:00:23;;;;;;;13.23;5.93;;;17.40;99.90;;;;;;4981565;28;20335;-73
2022/06/27 07:02:50;;;;;;;12.25;5.93;;;17.40;99.90;;;;;;4980949;28;20390;-73
2022/06/27 07:05:16;;;;;;;12.48;5.97;;;17.40;99.90;;;;;;4980976;28;20058;-75
2022/06/27 07:07:42;;;;;;;11.32;5.75;;;17.50;99.90;;;;;;4981410;28;20042;-74
2022/06/27 07:10:09;;;;;;;10.88;5.68;;;17.60;99.90;;;;;;4996722;28;20038;-73
2022/06/27 07:12:36;;;;;;;12.50;6.03;;;17.60;99.90;;;;;;5014189;28;20061;-75
2022/06/27 07:15:05;;;;;;;12.15;6.28;;;17.70;99.90;;;;;;4980718;28;20366;-74
2022/06/27 07:17:39;;;;;;;12.05;6.18;;;17.50;99.90;;;;;;4964573;28;20089;-75
2022/06/27 07:20:06;;;;;;;11.65;6.28;;;17.60;99.90;;;;;;4997101;28;20055;-75
2022/06/27 07:22:32;;;;;;;14.20;6.53;;;17.50;99.90;;;;;;4996491;28;20393;-74
2022/06/27 07:24:58;;;;;;;13.68;6.65;;;17.50;99.90;;;;;;5014016;28;20052;-73
2022/06/27 07:27:24;;;;;;;11.57;6.03;;;17.60;99.90;;;;;;4996159;28;20050;-74
2022/06/27 07:29:50;;;;;;;12.23;5.87;;;17.50;99.90;;;;;;4980943;28;20049;-73
2022/06/27 07:32:16;;;;;;;13.00;6.05;;;17.50;99.90;;;;;;5014051;28;20335;-74
2022/06/27 07:34:42;;;;;;;12.85;6.05;;;17.40;99.90;;;;;;4996616;28;20050;-73
2022/06/27 07:37:07;;;;;;;10.60;6.10;;;17.50;99.90;;;;;;4980519;28;20061;-74
2022/06/27 07:39:34;;;;;;;17.23;6.13;;;17.40;99.90;;;;;;4996716;28;20038;-74
2022/06/27 07:42:01;;;;;;;14.07;6.40;;;17.50;99.90;;;;;;5013844;28;20053;-73
2022/06/27 07:44:27;;;;;;;;;;;17.50;99.90;;;;;;5014444;28;20432;-74
2022/06/27 07:46:53;;;;;;;12.90;6.10;;;17.60;99.90;;;;;;4996538;28;20016;-74
2022/06/27 07:49:19;;;;;;;11.83;5.33;;;17.80;99.90;;;;;;4996820;28;20037;-73
2022/06/27 07:51:47;;;;;;;12.07;6.00;;;17.90;99.90;;;;;;4964200;28;20041;-73
2022/06/27 07:54:14;;;;;;;12.63;5.85;;;17.90;99.90;;;;;;4996301;28;20058;-72
2022/06/27 07:56:40;;;;;;;12.80;5.90;;;18.10;99.90;;;;;;4996198;28;20042;-74
2022/06/27 07:59:07;;;;;;;10.27;5.43;;;18.10;99.90;;;;;;4981032;28;20089;-73
2022/06/27 08:01:33;;;;;;;12.48;5.90;;;18.30;99.90;;;;;;5013502;28;20049;-73
2022/06/27 08:03:59;;;;;;;10.80;4.78;;;18.40;99.90;;;;;;5013833;28;20046;-74
2022/06/27 08:06:28;;;;;;;10.20;5.30;;;18.50;99.90;;;;;;4995407;28;20125;-73
2022/06/27 08:09:03;;;;;;;8.55;4.65;;;18.70;99.90;;;;;;5013071;28;20121;-73
2022/06/27 08:11:35;;;;;;;9.93;4.70;;;18.80;99.90;;;;;;4997016;28;20398;-74
2022/06/27 08:14:05;;;;;;;7.80;4.20;;;19.10;99.90;;;;;;5014159;28;20054;-72
2022/06/27 08:16:33;;;;;;;9.55;4.63;;;19.30;99.90;;;;;;5013564;28;20448;-76
2022/06/27 08:19:00;;;;;;;10.32;4.75;;;19.20;99.90;;;;;;4995410;28;20049;-73
2022/06/27 08:21:27;;;;;;;10.32;4.63;;;18.80;99.90;;;;;;4979984;28;20081;-73
2022/06/27 08:23:59;;;;;;;9.38;5.10;;;18.80;99.90;;;;;;4995747;28;20054;-72
2022/06/27 08:26:26;;;;;;;11.23;4.72;;;19.00;99.90;;;;;;5013024;28;20495;-73
2022/06/27 08:28:53;;;;;;;8.80;4.60;;;19.10;99.90;;;;;;4978626;28;20045;-75
2022/06/27 08:31:19;;;;;;;8.73;4.53;;;19.20;99.90;;;;;;4995743;28;20054;-73
2022/06/27 08:33:47;;;;;;;10.63;4.90;;;19.30;99.90;;;;;;5012611;28;20486;-74
2022/06/27 08:36:14;;;;;;;9.32;4.72;;;19.30;99.90;;;;;;4995560;28;20042;-75
2022/06/27 08:38:48;;;;;;;9.27;4.45;;;19.40;99.90;;;;;;4994959;28;20504;-74
2022/06/27 08:41:15;;;;;;;12.57;5.05;;;19.50;99.90;;;;;;5012597;28;20057;-74
2022/06/27 08:43:41;;;;;;;;;;;19.60;99.90;;;;;;4996149;28;20050;-73
2022/06/27 08:46:09;;;;;;;8.52;4.30;;;19.70;99.90;;;;;;4979624;28;19921;-74
2022/06/27 08:48:39;;;;;;;10.75;4.38;;;19.90;99.90;;;;;;4996092;28;20201;-73
2022/06/27 08:51:06;;;;;;;11.20;4.40;;;20.20;99.90;;;;;;5013266;28;20133;-73
2022/06/27 08:53:38;;;;;;;7.50;3.67;;;20.50;99.90;;;;;;4979347;28;20057;-73
2022/06/27 08:56:06;;;;;;;9.23;3.55;;;20.60;99.90;;;;;;5013511;28;20044;-74
2022/06/27 08:58:31;;;;;;;8.63;3.35;;;20.80;99.90;;;;;;4995634;28;20049;-73
2022/06/27 09:00:58;;;;;;;8.67;3.90;;;20.90;99.90;;;;;;4995559;28;20045;-73
2022/06/27 09:03:24;;;;;;;8.65;4.60;;;21.00;99.90;;;;;;5012820;28;20046;-73
2022/06/27 09:05:57;;;;;;;8.60;4.18;;;21.30;99.90;;;;;;4995183;28;20088;-74
2022/06/27 09:08:27;;;;;;;7.97;4.50;;;20.70;99.90;;;;;;5012832;28;20512;-74
2022/06/27 09:10:54;;;;;;;11.13;4.15;;;20.50;99.90;;;;;;4996181;28;20069;-74
2022/06/27 09:13:20;;;;;;;12.57;5.20;;;20.40;99.90;;;;;;4979664;28;20050;-74
2022/06/27 09:16:04;;;;;;;11.63;5.25;;;20.60;99.90;;;;;;5013349;28;20140;-73
2022/06/27 09:18:35;;;;;;;9.57;5.10;;;20.70;99.90;;;;;;5011918;28;20433;-73
2022/06/27 09:21:07;;;;;;;10.77;5.05;;;20.30;99.90;;;;;;4999567;28;20046;-75
2022/06/27 09:24:00;;;;;;;8.65;4.55;;;19.80;99.90;;;;;;4999499;28;20137;-74
2022/06/27 09:26:35;;;;;;;9.52;4.13;;;19.70;99.90;;;;;;4984424;28;20081;-73
2022/06/27 09:29:04;;;;;;;7.90;4.00;;;19.60;99.90;;;;;;4999146;28;20050;-74
2022/06/27 09:31:37;;;;;;;10.95;4.15;;;19.50;99.90;;;;;;5016857;28;20229;-74
2022/06/27 09:34:05;;;;;;;7.82;3.80;;;19.70;99.90;;;;;;4984196;28;20477;-72
2022/06/27 09:36:34;;;;;;;10.25;4.60;;;19.90;99.90;;;;;;4985131;28;20185;-73
2022/06/27 09:39:02;;;;;;;11.38;4.90;;;20.00;99.90;;;;;;5019332;28;20096;-73
2022/06/27 09:41:32;;;;;;;15.55;5.18;;;20.00;99.90;;;;;;5017332;28;20072;-73
2022/06/27 09:44:10;;;;;;;11.43;5.28;;;20.00;99.90;;;;;;5000532;28;20523;-73
2022/06/27 09:46:42;;;;;;;13.00;5.85;;;19.90;99.90;;;;;;5018596;28;20049;-74
2022/06/27 09:49:12;;;;;;;12.73;6.53;;;19.90;99.90;;;;;;5019594;28;20535;-76
2022/06/27 09:51:42;;;;;;;14.63;6.88;;;20.00;99.90;;;;;;5020197;28;20409;-73
2022/06/27 09:54:10;;;;;;;15.95;6.88;;;19.90;99.90;;;;;;5022280;28;20042;-75
2022/06/27 09:56:41;;;;;;;14.77;7.07;;;19.80;99.90;;;;;;5005870;28;20050;-75
2022/06/27 09:59:10;;;;;;;14.63;7.78;;;19.90;99.90;;;;;;4991542;28;20139;-74
2022/06/27 10:01:37;;;;;;;15.32;8.02;;;20.10;99.90;;;;;;4992364;28;20061;-73
2022/06/27 10:04:04;;;;;;;17.27;8.00;;;20.20;99.90;;;;;;5008914;28;20088;-74
2022/06/27 10:06:31;;;;;;;;;;;20.20;99.90;;;;;;5006151;28;20133;-76
2022/06/27 10:08:58;;;;;;;16.42;7.90;;;20.20;99.90;;;;;;5005893;28;19928;-73
2022/06/27 10:11:24;;;;;;;17.05;7.80;;;20.30;99.90;;;;;;5007346;28;20057;-74
2022/06/27 10:14:20;;;;;;;17.15;8.27;;;20.30;99.90;;;;;;5007467;28;20084;-73
2022/06/27 10:16:57;;;;;;;20.25;8.30;;;20.30;99.90;;;;;;5006985;28;20397;-76
2022/06/27 10:19:29;;;;;;;21.92;9.60;;;20.30;99.90;;;;;;4991406;28;20089;-73
2022/06/27 10:21:56;;;;;;;19.48;9.60;;;20.20;99.90;;;;;;5022024;28;20057;-72
2022/06/27 10:24:23;;;;;;;20.05;9.02;;;20.10;99.90;;;;;;5001550;28;20476;-73
2022/06/27 10:27:02;;;;;;;18.80;8.85;;;20.00;99.90;;;;;;4988124;28;20046;-73
2022/06/27 10:29:33;;;;;;;16.13;9.07;;;20.00;99.90;;;;;;5004340;28;20037;-74
2022/06/27 10:32:04;;;;;;;18.85;10.05;;;20.00;99.90;;;;;;4989485;28;20096;-77
2022/06/27 10:34:43;;;;;;;20.50;10.27;;;20.10;99.90;;;;;;5022284;28;20050;-74
2022/06/27 10:37:24;;;;;;;17.90;9.70;;;20.10;99.90;;;;;;5006498;28;20050;-74
2022/06/27 10:40:18;;;;;;;21.05;9.68;;;20.20;99.90;;;;;;4989078;28;20068;-72
2022/06/27 10:42:51;;;;;;;17.35;7.82;;;20.00;99.90;;;;;;5005490;28;20053;-75
2022/06/27 10:45:20;;;;;;;16.20;7.75;;;20.10;99.90;;;;;;4986775;28;20429;-81
2022/06/27 10:48:03;;;;;;;15.48;7.28;;;20.10;99.90;;;;;;5021766;28;20042;-75
2022/06/27 10:50:40;;;;;;;;;;;19.90;99.90;;;;;;4990652;28;20105;-74
2022/06/27 10:53:25;;;;;;;13.70;6.47;;;20.00;99.90;;;;;;5004942;28;19921;-78
2022/06/27 10:55:52;;;;;;;20.20;7.65;;;20.10;99.90;;;;;;5006135;28;20064;-74
2022/06/27 10:58:28;;;;;;;14.05;6.97;;;20.10;99.90;;;;;;5025307;28;20111;-80
2022/06/27 11:01:15;;;;;;;13.50;7.00;;;20.20;99.90;;;;;;4994350;28;20053;-75
2022/06/27 11:03:41;;;;;;;20.88;8.85;;;20.30;99.90;;;;;;4994499;28;20238;-76
2022/06/27 11:06:08;;;;;;;22.80;10.52;;;20.40;99.90;;;;;;5008876;28;20092;-77
2022/06/27 11:08:37;;;;;;;17.65;9.40;;;20.60;99.90;;;;;;5008513;28;20050;-74
2022/06/27 11:11:04;;;;;;;19.02;10.35;;;20.70;99.90;;;;;;5008593;28;20053;-77
2022/06/27 11:13:46;;;;;;;24.23;10.93;;;20.40;99.90;;;;;;5009716;28;20046;-74
2022/06/27 11:16:19;;;;;;;18.45;10.77;;;20.00;99.90;;;;;;5006887;28;20068;-77
2022/06/27 11:18:53;;;;;;;23.15;10.60;;;19.90;99.90;;;;;;5021756;28;20042;-74
2022/06/27 11:21:24;;;;;;;24.95;11.60;;;19.80;99.90;;;;;;5004247;28;20481;-74
2022/06/27 11:23:59;;;;;;;21.67;11.18;;;19.80;99.90;;;;;;5003923;28;20049;-75
2022/06/27 11:26:54;;;;;;;25.55;11.95;;;20.00;99.90;;;;;;5023755;28;20121;-75
2022/06/27 11:32:08;;;;;;;20.60;10.50;;;19.90;99.90;;;;;;5024967;28;20109;-74
2022/06/27 11:34:36;;;;;;;25.38;11.93;;;20.10;99.90;;;;;;5008731;28;20048;-73
2022/06/27 11:37:14;;;;;;;25.30;11.35;;;20.30;99.90;;;;;;5010391;28;20080;-79
2022/06/27 11:39:40;;;;;;;22.33;11.00;;;20.60;99.90;;;;;;5027572;28;20049;-73
2022/06/27 11:42:11;;;;;;;31.55;10.60;;;20.70;99.90;;;;;;5007186;28;20054;-81
2022/06/27 11:45:08;;;;;;;21.80;10.60;;;20.50;99.90;;;;;;5009966;28;20060;-76
2022/06/27 11:47:35;;;;;;;23.45;10.88;;;20.10;99.90;;;;;;5020123;28;20046;-75
2022/06/27 11:50:14;;;;;;;18.55;9.45;;;20.00;99.90;;;;;;5003877;28;20474;-78
2022/06/27 11:52:42;;;;;;;22.75;9.65;;;20.10;99.90;;;;;;5002685;28;20125;-75
2022/06/27 11:55:12;;;;;;;19.55;10.70;;;20.20;99.90;;;;;;5017166;28;20393;-76
2022/06/27 11:57:50;;;;;;;24.15;11.15;;;20.20;99.90;;;;;;5000999;28;20042;-74
2022/06/27 12:00:24;;;;;;;23.75;10.80;;;20.50;99.90;;;;;;5018704;28;20502;-74
2022/06/27 12:03:11;;;;;;;22.17;11.45;;;20.80;99.90;;;;;;4998668;28;20050;-75
2022/06/27 12:05:39;;;;;;;26.02;11.10;;;21.20;99.90;;;;;;5015135;28;20168;-77
2022/06/27 12:08:07;;;;;;;21.52;11.05;;;21.10;99.90;;;;;;5014970;28;20056;-76
2022/06/27 12:10:37;;;;;;;21.23;11.00;;;20.90;99.90;;;;;;5016209;28;20046;-77
2022/06/27 12:13:09;;;;;;;21.05;11.00;;;21.20;99.90;;;;;;4997380;28;20052;-77
2022/06/27 12:15:37;;;;;;;18.75;10.73;;;21.50;99.90;;;;;;4981230;28;20046;-77
2022/06/27 12:18:04;;;;;;;24.35;11.77;;;21.80;99.90;;;;;;5014363;28;20041;-75
2022/06/27 12:20:31;;;;;;;26.23;10.63;;;21.70;99.90;;;;;;4980100;28;20065;-80
2022/06/27 12:22:57;;;;;;;20.83;11.23;;;21.40;99.90;;;;;;4996100;28;20049;-74
2022/06/27 12:25:23;;;;;;;22.70;12.13;;;21.70;99.90;;;;;;4996549;28;20382;-77
2022/06/27 12:27:50;;;;;;;24.87;12.17;;;21.30;99.90;;;;;;4979867;28;20042;-75
2022/06/27 12:30:15;;;;;;;;;;;21.60;99.90;;;;;;5014425;28;20057;-74
2022/06/27 12:32:42;;;;;;;26.48;12.02;;;21.70;99.90;;;;;;5013145;28;20288;-74
2022/06/27 12:35:08;;;;;;;20.50;11.13;;;21.60;99.90;;;;;;5013185;28;20054;-74
2022/06/27 12:37:37;;;;;;;22.40;11.38;;;21.90;99.90;;;;;;4995724;28;20045;-75
2022/06/27 12:40:05;;;;;;;21.35;11.13;;;22.00;99.90;;;;;;4995477;28;20095;-75
2022/06/27 12:42:31;;;;;;;22.00;10.52;;;22.00;99.90;;;;;;5012293;28;20065;-80
2022/06/27 12:44:57;;;;;;;23.02;10.63;;;22.10;99.90;;;;;;5013348;28;20132;-76
2022/06/27 12:47:23;;;;;;;24.63;10.40;;;22.10;99.90;;;;;;4995418;28;20081;-74
2022/06/27 12:49:50;;;;;;;26.00;11.77;;;21.90;99.90;;;;;;4995772;28;20454;-74
2022/06/27 12:52:16;;;;;;;26.05;11.43;;;21.80;99.90;;;;;;5013955;28;20056;-74